Nearby METAR Reports

 

KICL - Clarinda, Iowa, USA
Distance from station: N 49mi, 79km
Updated: Sat, 20-Jul-2019 7:15am CDT
Clear
Clear
 Wind from S
Wind: S 10 mph , 17 km/h
Temperature: 79°F , 26°C
Dew Point: 75°F , 24°C
Humidity: 89%
Barometer: 29.81 inHg , 1009.5 hPa
Clouds: Clear
Visibility: 10 miles , 16 km
2019/07/20 12:15 KICL 201215Z AUTO 19009KT 10SM CLR 26/24 A2981 RMK AO2
KDSM - Des Moines, Iowa, USA
Distance from station: NNE 122mi, 196km
Updated: Sat, 20-Jul-2019 6:54am CDT
Clear
Clear
 Wind from SSW
Wind: SSW 14 mph , 22 km/h
Temperature: 81°F , 27°C
Heat Index: 86°F , 30°C
Dew Point: 73°F , 23°C
Humidity: 79%
Barometer: 29.78 inHg , 1008.5 hPa
Clouds: Clear
Visibility: 10 miles , 16 km
2019/07/20 11:54 KDSM 201154Z 20012KT 10SM CLR 27/23 A2978 RMK AO2 SLP072 T02670228 10289 20261 50001
KFNB - Falls City, Nebraska, USA
Distance from station: W 50mi, 80km
Updated: Sat, 20-Jul-2019 6:53am CDT
Clear
Clear
 Wind from S
Wind: S 9 mph , 15 km/h, Gust: 20 mph , 31 km/h
Temperature: 79°F , 26°C
Dew Point: 72°F , 22°C
Humidity: 79%
Barometer: 29.79 inHg , 1008.8 hPa
Clouds: Clear
Visibility: 10 miles , 16 km
2019/07/20 11:53 KFNB 201153Z AUTO 17008G17KT 10SM CLR 26/22 A2979 RMK AO2 SLP074 T02610217 10300 20261 50000
 
KMCI - Kansas City, Missouri, USA
Distance from station: S 65mi, 104km
Updated: Sat, 20-Jul-2019 6:53am CDT
Clear
Clear
 Wind from S
Wind: S 17 mph , 28 km/h
Temperature: 79°F , 26°C
Dew Point: 72°F , 22°C
Humidity: 79%
Barometer: 29.86 inHg , 1011.2 hPa
Clouds: Clear
Visibility: 10 miles , 16 km
2019/07/20 11:53 KMCI 201153Z 19015KT 10SM CLR 26/22 A2986 RMK AO2 SLP096 T02560222 10289 20250 50002
KOMA - Omaha, Nebraska, USA
Distance from station: NNW 105mi, 169km
Updated: Sat, 20-Jul-2019 6:52am CDT
Few Clouds
Few Clouds
 Wind from S
Wind: S 16 mph , 26 km/h
Temperature: 82°F , 28°C
Heat Index: 86°F , 30°C
Dew Point: 72°F , 22°C
Humidity: 70%
Barometer: 29.74 inHg , 1007.1 hPa
Clouds: Few Clouds
Visibility: 10 miles , 16 km
Cloud details: Few Clouds 25000 ft
2019/07/20 11:52 KOMA 201152Z 17014KT 10SM FEW250 28/22 A2974 RMK AO2 SLP057 T02780217 10306 20278 56004
KRDK - Red Oak, Iowa, USA
Distance from station: N 70mi, 112km
Updated: Sat, 20-Jul-2019 7:15am CDT
Clear
Clear
 Wind from S
Wind: S 10 mph , 17 km/h
Temperature: 79°F , 26°C
Dew Point: 73°F , 23°C
Humidity: 84%
Barometer: 29.78 inHg , 1008.5 hPa
Clouds: Clear
Visibility: 10 miles , 16 km
2019/07/20 12:15 KRDK 201215Z AUTO 18009KT 10SM CLR 26/23 A2978 RMK AO2
 
KSTJ - Saint Joseph, Missouri, USA
Distance from station: SW 23mi, 37km
Updated: Sat, 20-Jul-2019 6:53am CDT
Clear
Clear
 Wind from S
Wind: S 10 mph , 17 km/h
Temperature: 81°F , 27°C
Heat Index: 85°F , 29°C
Dew Point: 72°F , 22°C
Humidity: 74%
Barometer: 29.83 inHg , 1010.2 hPa
Clouds: Clear
Visibility: 7 miles , 11 km
2019/07/20 11:53 KSTJ 201153Z AUTO 18009KT 7SM CLR 27/22 A2983 RMK AO2 SLP091 T02670217 10294 20256 51006
KTOP - Topeka, Kansas, USA
Distance from station: SW 85mi, 137km
Updated: Sat, 20-Jul-2019 6:53am CDT
Clear
Clear
 Wind from S
Wind: S 14 mph , 22 km/h, Gust: 23 mph , 37 km/h
Temperature: 81°F , 27°C
Heat Index: 85°F , 29°C
Dew Point: 72°F , 22°C
Humidity: 74%
Barometer: 29.82 inHg , 1009.8 hPa
Clouds: Clear
Visibility: 10 miles , 16 km
2019/07/20 11:53 KTOP 201153Z 18012G20KT 10SM CLR 27/22 A2982 RMK AO2 SLP084 T02670222 10294 20267 58003 $
KICT - Wichita, Kansas, USA
Distance from station: SW 215mi, 346km
Updated: Sat, 20-Jul-2019 6:53am CDT
Few Clouds
Few Clouds
 Wind from S
Wind: S 16 mph , 26 km/h
Temperature: 79°F , 26°C
Dew Point: 68°F , 20°C
Humidity: 70%
Barometer: 29.82 inHg , 1009.8 hPa
Clouds: Few Clouds
Visibility: 10 miles , 16 km
Cloud details: Few Clouds 25000 ft
2019/07/20 11:53 KICT 201153Z 17014KT 10SM FEW250 26/20 A2982 RMK AO2 SLP080 T02560200 10289 20256 55000 $